createdAt,value
2018-03-04T00:01:56.796Z,57.53
2018-03-04T00:04:29.906Z,56.30
2018-03-04T00:07:03.209Z,57.67
2018-03-04T00:09:30.955Z,56.57
2018-03-04T00:11:58.461Z,58.83
2018-03-04T00:14:26.013Z,56.07
2018-03-04T00:16:53.472Z,53.83
2018-03-04T00:19:21.132Z,57.00
2018-03-04T00:21:48.676Z,55.47
2018-03-04T00:24:16.605Z,53.80
2018-03-04T00:26:44.078Z,55.27
2018-03-04T00:29:12.098Z,55.27
2018-03-04T00:31:40.137Z,55.97
2018-03-04T00:34:09.336Z,55.63
2018-03-04T00:36:37.226Z,56.57
2018-03-04T00:39:05.837Z,53.93
2018-03-04T00:41:33.833Z,55.60
2018-03-04T00:44:01.661Z,55.70
2018-03-04T00:46:29.169Z,55.17
2018-03-04T00:48:56.800Z,54.33
2018-03-04T00:51:24.279Z,57.87
2018-03-04T00:53:52.686Z,59.33
2018-03-04T00:56:20.244Z,55.10
2018-03-04T00:58:49.112Z,57.63
2018-03-04T01:01:16.838Z,55.53
2018-03-04T01:03:47.176Z,57.17
2018-03-04T01:06:14.951Z,56.93
2018-03-04T01:08:42.578Z,57.67
2018-03-04T01:11:11.344Z,58.33
2018-03-04T01:13:38.822Z,56.50
2018-03-04T01:16:06.517Z,57.13
2018-03-04T01:18:33.995Z,55.57
2018-03-04T01:21:01.929Z,54.13
2018-03-04T01:23:29.463Z,55.20
2018-03-04T01:25:57.263Z,54.53
2018-03-04T01:28:26.472Z,52.43
2018-03-04T01:30:53.940Z,53.03
2018-03-04T01:33:21.539Z,52.10
2018-03-04T01:35:49.107Z,53.40
2018-03-04T01:38:16.619Z,51.37
2018-03-04T01:40:44.958Z,50.37
2018-03-04T01:43:12.499Z,48.70
2018-03-04T01:45:40.051Z,48.40
2018-03-04T01:48:07.620Z,50.83
2018-03-04T01:50:35.798Z,50.00
2018-03-04T01:53:04.446Z,50.70
2018-03-04T01:55:32.916Z,50.37
2018-03-04T01:58:00.424Z,49.13
2018-03-04T02:00:27.946Z,48.33
2018-03-04T02:02:55.750Z,51.67
2018-03-04T02:05:23.235Z,51.23
2018-03-04T02:07:50.738Z,50.50
2018-03-04T02:10:18.251Z,50.77
2018-03-04T02:12:45.715Z,50.83
2018-03-04T02:15:13.465Z,50.50
2018-03-04T02:17:40.967Z,50.37
2018-03-04T02:20:08.443Z,49.67
2018-03-04T02:22:35.968Z,50.53
2018-03-04T02:25:03.451Z,50.20
2018-03-04T02:27:30.984Z,49.90
2018-03-04T02:29:58.498Z,49.40
2018-03-04T02:32:26.014Z,47.47
2018-03-04T02:34:53.540Z,50.23
2018-03-04T02:37:21.298Z,50.53
2018-03-04T02:39:48.775Z,51.27
2018-03-04T02:42:16.236Z,50.03
2018-03-04T02:44:43.732Z,48.77
2018-03-04T02:47:11.215Z,46.47
2018-03-04T02:49:38.983Z,47.77
2018-03-04T02:52:06.883Z,46.40
2018-03-04T02:54:34.363Z,49.27
2018-03-04T02:57:01.881Z,47.60
2018-03-04T02:59:29.371Z,46.37
2018-03-04T03:01:56.839Z,46.20
2018-03-04T03:04:24.363Z,45.30
2018-03-04T03:06:51.891Z,45.03
2018-03-04T03:09:19.343Z,47.30
2018-03-04T03:11:46.823Z,50.87
2018-03-04T03:14:14.323Z,47.60
2018-03-04T03:16:41.798Z,47.13
2018-03-04T03:19:10.012Z,48.10
2018-03-04T03:21:37.500Z,49.80
2018-03-04T03:24:06.567Z,48.70
2018-03-04T03:26:34.373Z,49.30
2018-03-04T03:29:01.899Z,48.93
2018-03-04T03:31:29.391Z,48.53
2018-03-04T03:33:59.295Z,48.40
2018-03-04T03:36:29.013Z,48.83
2018-03-04T03:38:56.624Z,49.40
2018-03-04T03:41:24.111Z,50.90
2018-03-04T03:43:51.590Z,47.87
2018-03-04T03:46:19.107Z,53.13
2018-03-04T03:48:47.162Z,49.20
2018-03-04T03:51:14.652Z,50.27
2018-03-04T03:53:42.132Z,53.27
2018-03-04T03:56:09.614Z,51.77
2018-03-04T03:58:37.086Z,51.67
2018-03-04T04:01:04.599Z,54.20
2018-03-04T04:03:32.075Z,52.97
2018-03-04T04:05:59.563Z,51.07
2018-03-04T04:08:27.031Z,51.80
2018-03-04T04:10:54.531Z,50.80
2018-03-04T04:13:21.991Z,52.23
2018-03-04T04:15:49.478Z,50.17
2018-03-04T04:18:16.944Z,53.60
2018-03-04T04:20:44.434Z,53.43
2018-03-04T04:23:11.891Z,53.50
2018-03-04T04:25:39.378Z,55.63
2018-03-04T04:28:06.845Z,54.67
2018-03-04T04:30:34.383Z,54.77
2018-03-04T04:33:01.833Z,56.50
2018-03-04T04:35:29.334Z,55.17
2018-03-04T04:37:56.795Z,57.07
2018-03-04T04:40:24.262Z,56.87
2018-03-04T04:42:51.748Z,58.80
2018-03-04T04:45:19.211Z,58.67
2018-03-04T04:47:46.703Z,57.70
2018-03-04T04:50:14.199Z,57.27
2018-03-04T04:52:42.615Z,60.97
2018-03-04T04:55:11.246Z,57.87
2018-03-04T04:57:38.727Z,57.13
2018-03-04T05:00:06.188Z,57.87
2018-03-04T05:02:33.692Z,59.00
2018-03-04T05:05:01.156Z,60.20
2018-03-04T05:07:28.657Z,58.73
2018-03-04T05:09:56.130Z,58.47
2018-03-04T05:12:24.712Z,57.37
2018-03-04T05:14:52.180Z,55.50
2018-03-04T05:17:19.659Z,56.37
2018-03-04T05:19:47.125Z,54.13
2018-03-04T05:22:14.603Z,55.33
2018-03-04T05:24:42.075Z,54.80
2018-03-04T05:27:09.568Z,52.73
2018-03-04T05:29:37.044Z,56.07
2018-03-04T05:32:04.542Z,52.27
2018-03-04T05:34:32.008Z,52.50
2018-03-04T05:36:59.503Z,51.00
2018-03-04T05:39:26.963Z,51.10
2018-03-04T05:41:54.452Z,48.50
2018-03-04T05:44:21.966Z,49.43
2018-03-04T05:46:49.464Z,47.77
2018-03-04T05:49:16.932Z,49.07
2018-03-04T05:51:44.422Z,50.93
2018-03-04T05:54:11.886Z,47.43
2018-03-04T05:56:39.383Z,47.00
2018-03-04T05:59:06.848Z,46.87
2018-03-04T06:01:34.332Z,49.00
2018-03-04T06:04:02.687Z,43.87
2018-03-04T06:06:30.152Z,45.20
2018-03-04T06:08:57.651Z,44.63
2018-03-04T06:11:25.125Z,46.57
2018-03-04T06:13:52.616Z,46.43
2018-03-04T06:16:20.091Z,46.37
2018-03-04T06:18:47.579Z,45.93
2018-03-04T06:21:15.047Z,44.23
2018-03-04T06:23:42.533Z,47.90
2018-03-04T06:26:09.999Z,45.40
2018-03-04T06:28:37.484Z,44.87
2018-03-04T06:31:04.947Z,44.87
2018-03-04T06:33:32.440Z,42.13
2018-03-04T06:35:59.908Z,42.80
2018-03-04T06:38:27.391Z,42.30
2018-03-04T06:40:54.855Z,39.07
2018-03-04T06:43:22.337Z,39.40
2018-03-04T06:45:49.800Z,37.30
2018-03-04T06:48:17.278Z,37.33
2018-03-04T06:50:44.748Z,37.07
2018-03-04T06:53:12.235Z,36.83
2018-03-04T06:55:39.699Z,36.73
2018-03-04T06:58:07.183Z,33.43
2018-03-04T07:00:34.647Z,35.47
2018-03-04T07:03:02.142Z,35.53
2018-03-04T07:05:29.611Z,32.93
2018-03-04T07:07:57.097Z,35.73
2018-03-04T07:10:24.575Z,35.60
2018-03-04T07:12:52.067Z,34.87
2018-03-04T07:15:19.531Z,34.43
2018-03-04T07:17:47.012Z,35.33
2018-03-04T07:20:14.472Z,33.87
2018-03-04T07:22:41.934Z,32.93
2018-03-04T07:25:09.425Z,32.87
2018-03-04T07:27:36.896Z,33.27
2018-03-04T07:30:04.378Z,32.70
2018-03-04T07:32:31.835Z,33.33
2018-03-04T07:34:59.340Z,31.53
2018-03-04T07:37:26.811Z,32.80
2018-03-04T07:39:54.299Z,29.37
2018-03-04T07:42:21.767Z,30.60
2018-03-04T07:44:49.259Z,31.73
2018-03-04T07:47:16.756Z,30.90
2018-03-04T07:49:44.214Z,31.13
2018-03-04T07:52:11.699Z,29.37
2018-03-04T07:54:39.183Z,29.47
2018-03-04T07:57:06.646Z,30.90
2018-03-04T07:59:34.187Z,29.27
2018-03-04T08:02:01.634Z,28.30
2018-03-04T08:04:29.127Z,28.93
2018-03-04T08:06:56.599Z,29.93
2018-03-04T08:09:24.092Z,27.60
2018-03-04T08:11:51.555Z,28.23
2018-03-04T08:14:19.054Z,27.37
2018-03-04T08:16:46.521Z,28.00
2018-03-04T08:19:14.003Z,28.63
2018-03-04T08:21:41.463Z,28.30
2018-03-04T08:24:08.953Z,26.43
2018-03-04T08:26:48.352Z,26.27
2018-03-04T08:29:15.839Z,25.13
2018-03-04T08:31:43.294Z,26.43
2018-03-04T08:34:10.775Z,23.60
2018-03-04T08:36:38.232Z,24.03
2018-03-04T08:39:05.718Z,22.83
2018-03-04T08:41:33.184Z,24.67
2018-03-04T08:44:00.668Z,24.40
2018-03-04T08:46:29.344Z,25.83
2018-03-04T08:48:56.837Z,23.73
2018-03-04T08:51:24.299Z,23.43
2018-03-04T08:53:51.759Z,24.10
2018-03-04T08:56:19.268Z,23.27
2018-03-04T08:58:46.811Z,24.80
2018-03-04T09:01:14.286Z,26.27
2018-03-04T09:03:41.744Z,24.17
2018-03-04T09:06:09.239Z,25.53
2018-03-04T09:08:36.755Z,26.17
2018-03-04T09:11:04.252Z,24.27
2018-03-04T09:13:31.715Z,24.03
2018-03-04T09:15:59.215Z,25.57
2018-03-04T09:18:26.679Z,24.80
2018-03-04T09:20:54.154Z,23.33
2018-03-04T09:23:21.657Z,24.63
2018-03-04T09:25:49.127Z,24.23
2018-03-04T09:28:16.583Z,23.60
2018-03-04T09:30:44.093Z,24.80
2018-03-04T09:33:11.600Z,24.53
2018-03-04T09:35:39.059Z,22.40
2018-03-04T09:38:06.529Z,22.60
2018-03-04T09:40:34.018Z,22.43
2018-03-04T09:43:01.476Z,23.77
2018-03-04T09:45:28.995Z,22.23
2018-03-04T09:47:56.436Z,23.83
2018-03-04T09:50:23.925Z,21.80
2018-03-04T09:52:51.387Z,23.37
2018-03-04T09:55:18.873Z,23.10
2018-03-04T09:57:46.339Z,23.90
2018-03-04T10:00:13.823Z,21.63
2018-03-04T10:02:41.323Z,23.33
2018-03-04T10:05:08.825Z,22.67
2018-03-04T10:07:36.290Z,22.87
2018-03-04T10:10:03.819Z,22.13
2018-03-04T10:12:31.284Z,20.93
2018-03-04T10:14:58.773Z,21.63
2018-03-04T10:17:26.251Z,20.83
2018-03-04T10:19:53.714Z,20.50
2018-03-04T10:22:21.208Z,21.80
2018-03-04T10:24:48.658Z,20.33
2018-03-04T10:27:16.147Z,21.13
2018-03-04T10:29:43.608Z,20.40
2018-03-04T10:32:11.089Z,20.67
2018-03-04T10:34:38.556Z,21.10
2018-03-04T10:37:06.040Z,20.97
2018-03-04T10:39:33.527Z,21.60
2018-03-04T10:42:01.059Z,22.33
2018-03-04T10:44:28.526Z,19.37
2018-03-04T10:46:56.020Z,21.13
2018-03-04T10:49:23.518Z,20.47
2018-03-04T10:51:51.470Z,20.87
2018-03-04T10:54:18.922Z,21.23
2018-03-04T10:56:46.403Z,20.07
2018-03-04T10:59:13.859Z,21.33
2018-03-04T11:01:44.337Z,21.50
2018-03-04T11:04:11.800Z,20.10
2018-03-04T11:06:39.721Z,19.87
2018-03-04T11:09:07.182Z,21.70
2018-03-04T11:11:34.714Z,19.77
2018-03-04T11:14:02.184Z,19.73
2018-03-04T11:16:29.664Z,19.30
2018-03-04T11:18:57.132Z,19.87
2018-03-04T11:21:24.603Z,21.20
2018-03-04T11:23:52.075Z,20.03
2018-03-04T11:26:19.586Z,21.83
2018-03-04T11:28:47.619Z,21.17
2018-03-04T11:31:15.075Z,20.77
2018-03-04T11:33:42.540Z,21.03
2018-03-04T11:36:10.027Z,21.20
2018-03-04T11:38:37.496Z,23.47
2018-03-04T11:41:04.991Z,21.87
2018-03-04T11:43:32.463Z,21.63
2018-03-04T11:46:01.847Z,21.73
2018-03-04T11:48:29.475Z,22.70
2018-03-04T11:50:56.948Z,22.70
2018-03-04T11:53:24.456Z,22.37
2018-03-04T11:55:51.974Z,22.20
2018-03-04T11:58:19.431Z,20.63
2018-03-04T12:00:47.156Z,21.53
2018-03-04T12:03:14.635Z,21.03
2018-03-04T12:05:42.099Z,20.60
2018-03-04T12:08:09.608Z,20.13
2018-03-04T12:10:37.080Z,17.83
2018-03-04T12:13:04.607Z,19.40
2018-03-04T12:15:32.075Z,18.63
2018-03-04T12:17:59.846Z,19.03
2018-03-04T12:20:27.308Z,18.50
2018-03-04T12:22:54.808Z,18.80
2018-03-04T12:25:22.337Z,18.93
2018-03-04T12:27:49.835Z,17.73
2018-03-04T12:30:18.029Z,17.70
2018-03-04T12:32:45.535Z,18.17
2018-03-04T12:35:14.224Z,16.83
2018-03-04T12:37:41.748Z,16.10
2018-03-04T12:40:11.347Z,16.23
2018-03-04T12:42:38.911Z,15.93
2018-03-04T12:45:06.512Z,16.73
2018-03-04T12:47:34.066Z,15.63
2018-03-04T12:50:01.514Z,15.67
2018-03-04T12:52:29.014Z,15.77
2018-03-04T12:54:56.491Z,14.17
2018-03-04T12:57:24.059Z,15.00
2018-03-04T12:59:51.467Z,14.97
2018-03-04T13:02:18.957Z,15.00
2018-03-04T13:04:46.423Z,15.20
2018-03-04T13:07:14.358Z,15.10
2018-03-04T13:09:41.839Z,14.00
2018-03-04T13:12:09.355Z,15.00
2018-03-04T13:14:37.147Z,13.80
2018-03-04T13:17:04.628Z,15.00
2018-03-04T13:19:32.140Z,15.23
2018-03-04T13:21:59.633Z,14.63
2018-03-04T13:24:27.140Z,13.03
2018-03-04T13:26:54.607Z,14.80
2018-03-04T13:29:22.112Z,14.63
2018-03-04T13:31:49.584Z,14.40
2018-03-04T13:34:17.147Z,14.07
2018-03-04T13:36:44.585Z,14.00
2018-03-04T13:39:12.091Z,14.27
2018-03-04T13:41:39.566Z,14.23
2018-03-04T13:44:07.064Z,14.27
2018-03-04T13:46:34.553Z,15.17
2018-03-04T13:49:02.056Z,15.13
2018-03-04T13:51:29.543Z,14.30
2018-03-04T13:53:57.051Z,14.27
2018-03-04T13:56:24.529Z,15.50
2018-03-04T13:58:52.008Z,13.37
2018-03-04T14:01:19.518Z,14.10
2018-03-04T14:03:46.992Z,14.90
2018-03-04T14:06:14.482Z,14.20
2018-03-04T14:08:41.959Z,15.00
2018-03-04T14:11:09.464Z,16.67
2018-03-04T14:13:36.943Z,15.30
2018-03-04T14:16:04.443Z,15.43
2018-03-04T14:18:31.911Z,14.47
2018-03-04T14:20:59.418Z,15.40
2018-03-04T14:23:26.911Z,14.50
2018-03-04T14:25:54.882Z,14.40
2018-03-04T14:28:22.355Z,13.00
2018-03-04T14:30:49.847Z,13.87
2018-03-04T14:33:17.311Z,14.80
2018-03-04T14:35:45.223Z,15.80
2018-03-04T14:38:12.687Z,15.37
2018-03-04T14:40:40.166Z,15.40
2018-03-04T14:43:07.664Z,14.67
2018-03-04T14:45:35.143Z,14.93
2018-03-04T14:48:02.635Z,15.87
2018-03-04T14:50:30.119Z,14.87
2018-03-04T14:52:57.653Z,15.77
2018-03-04T14:55:25.110Z,16.13
2018-03-04T14:57:52.607Z,16.73
2018-03-04T15:00:20.087Z,16.80
2018-03-04T15:02:47.580Z,16.37
2018-03-04T15:05:15.063Z,17.27
2018-03-04T15:07:42.547Z,17.07
2018-03-04T15:10:10.036Z,16.60
2018-03-04T15:12:37.535Z,16.87
2018-03-04T15:15:05.013Z,16.80
2018-03-04T15:17:32.498Z,16.40
2018-03-04T15:19:59.967Z,16.73
2018-03-04T15:22:27.459Z,16.23
2018-03-04T15:24:54.957Z,15.60
2018-03-04T15:27:22.425Z,15.90
2018-03-04T15:29:49.912Z,16.30
2018-03-04T15:32:17.379Z,16.73
2018-03-04T15:34:44.863Z,16.23
2018-03-04T15:37:12.331Z,16.30
2018-03-04T15:39:39.851Z,16.50
2018-03-04T15:42:07.307Z,15.43
2018-03-04T15:44:34.790Z,16.23
2018-03-04T15:47:02.255Z,16.20
2018-03-04T15:49:29.746Z,17.03
2018-03-04T15:51:57.203Z,15.57
2018-03-04T15:54:24.693Z,15.73
2018-03-04T15:56:52.156Z,15.27
2018-03-04T15:59:19.640Z,15.43
2018-03-04T16:01:47.158Z,15.10
2018-03-04T16:04:14.625Z,14.43
2018-03-04T16:06:42.123Z,13.70
2018-03-04T16:09:09.580Z,12.73
2018-03-04T16:11:37.112Z,11.77
2018-03-04T16:14:04.582Z,11.90
2018-03-04T16:16:32.071Z,11.67
2018-03-04T16:18:59.530Z,11.13
2018-03-04T16:21:27.012Z,11.63
2018-03-04T16:23:54.503Z,11.43
2018-03-04T16:26:21.992Z,11.27
2018-03-04T16:28:49.452Z,10.40
2018-03-04T16:31:16.939Z,10.40
2018-03-04T16:33:44.435Z,10.13
2018-03-04T16:36:11.931Z,9.53
2018-03-04T16:38:39.387Z,9.87
2018-03-04T16:41:06.875Z,10.00
2018-03-04T16:43:34.332Z,9.80
2018-03-04T16:46:01.846Z,9.47
2018-03-04T16:48:29.330Z,10.20
2018-03-04T16:50:56.795Z,9.67
2018-03-04T16:53:24.308Z,9.97
2018-03-04T16:55:51.776Z,9.93
2018-03-04T16:58:19.274Z,10.60
2018-03-04T17:00:46.754Z,10.10
2018-03-04T17:03:14.248Z,10.63
2018-03-04T17:05:41.711Z,10.90
2018-03-04T17:08:09.191Z,11.43
2018-03-04T17:10:36.679Z,11.67
2018-03-04T17:13:04.148Z,12.30
2018-03-04T17:15:31.607Z,12.30
2018-03-04T17:17:59.105Z,12.80
2018-03-04T17:20:26.565Z,12.70
2018-03-04T17:22:54.047Z,13.87
2018-03-04T17:25:21.627Z,14.80
2018-03-04T17:27:49.111Z,14.63
2018-03-04T17:30:16.666Z,14.50
2018-03-04T17:32:44.157Z,15.70
2018-03-04T17:35:11.639Z,16.63
2018-03-04T17:37:39.147Z,17.73
2018-03-04T17:40:06.595Z,18.13
2018-03-04T17:42:34.076Z,18.60
2018-03-04T17:45:01.581Z,18.93
2018-03-04T17:47:29.072Z,20.37
2018-03-04T17:49:56.549Z,19.57
2018-03-04T17:52:24.036Z,22.10
2018-03-04T17:54:51.495Z,20.93
2018-03-04T17:57:18.979Z,22.73
2018-03-04T17:59:46.450Z,21.70
2018-03-04T18:02:13.939Z,25.40
2018-03-04T18:04:41.403Z,23.70
2018-03-04T18:07:08.884Z,25.33
2018-03-04T18:09:36.353Z,23.80
2018-03-04T18:12:03.836Z,25.57
2018-03-04T18:14:31.299Z,25.60
2018-03-04T18:16:58.780Z,27.27
2018-03-04T18:19:26.242Z,27.03
2018-03-04T18:21:53.725Z,26.83
2018-03-04T18:24:21.178Z,26.57
2018-03-04T18:26:48.678Z,27.10
2018-03-04T18:29:16.140Z,28.17
2018-03-04T18:31:43.624Z,28.63
2018-03-04T18:34:11.080Z,28.13
2018-03-04T18:36:38.549Z,28.27
2018-03-04T18:39:06.036Z,28.23
2018-03-04T18:41:33.498Z,28.37
2018-03-04T18:44:00.974Z,28.23
2018-03-04T18:46:28.437Z,31.27
2018-03-04T18:48:55.920Z,29.63
2018-03-04T18:51:23.379Z,30.40
2018-03-04T18:53:50.878Z,30.90
2018-03-04T18:56:18.366Z,30.83
2018-03-04T18:58:45.863Z,30.30
2018-03-04T19:01:13.322Z,31.47
2018-03-04T19:03:40.803Z,31.63
2018-03-04T19:06:08.279Z,32.10
2018-03-04T19:08:35.755Z,32.47
2018-03-04T19:11:03.219Z,31.63
2018-03-04T19:13:30.762Z,31.30
2018-03-04T19:15:58.223Z,29.70
2018-03-04T19:18:25.699Z,29.83
2018-03-04T19:20:53.164Z,32.20
2018-03-04T19:23:20.645Z,31.77
2018-03-04T19:25:48.115Z,33.37
2018-03-04T19:28:15.612Z,32.57
2018-03-04T19:30:43.075Z,31.80
2018-03-04T19:33:10.559Z,31.67
2018-03-04T19:35:38.024Z,33.37
2018-03-04T19:38:05.496Z,33.83
2018-03-04T19:40:32.959Z,32.37
2018-03-04T19:43:00.428Z,32.07
2018-03-04T19:45:27.882Z,32.70
2018-03-04T19:47:55.359Z,33.33
2018-03-04T19:50:22.824Z,34.10
2018-03-04T19:52:50.306Z,34.30
2018-03-04T19:55:17.786Z,33.00
2018-03-04T19:57:45.238Z,33.63
2018-03-04T20:00:12.730Z,32.50
2018-03-04T20:02:40.196Z,33.57
2018-03-04T20:05:07.676Z,30.63
2018-03-04T20:07:35.146Z,30.50
2018-03-04T20:10:02.668Z,32.23
2018-03-04T20:12:30.172Z,30.37
2018-03-04T20:14:57.730Z,34.87
2018-03-04T20:17:25.204Z,33.30
2018-03-04T20:19:52.711Z,31.93
2018-03-04T20:22:20.176Z,26.77
2018-03-04T20:24:47.656Z,30.87
2018-03-04T20:27:15.128Z,29.03
2018-03-04T20:29:42.618Z,28.33
2018-03-04T20:32:10.079Z,29.60
2018-03-04T20:34:37.562Z,28.93
2018-03-04T20:37:05.028Z,30.13
2018-03-04T20:39:32.512Z,28.27
2018-03-04T20:41:59.976Z,27.37
2018-03-04T20:44:27.457Z,28.10
2018-03-04T20:46:54.928Z,27.80
2018-03-04T20:49:22.407Z,26.87
2018-03-04T20:51:49.875Z,25.80
2018-03-04T20:54:17.389Z,24.57
2018-03-04T20:56:44.860Z,25.90
2018-03-04T20:59:12.370Z,25.03
2018-03-04T21:01:39.848Z,23.80
2018-03-04T21:04:07.327Z,22.27
2018-03-04T21:06:34.813Z,19.67
2018-03-04T21:09:02.309Z,16.03
2018-03-04T21:11:29.773Z,12.57
2018-03-04T21:13:57.262Z,10.97
2018-03-04T21:16:24.723Z,9.93
2018-03-04T21:18:52.179Z,9.23
2018-03-04T21:21:19.662Z,9.40
2018-03-04T21:23:47.138Z,8.43
2018-03-04T21:26:14.623Z,8.33
2018-03-04T21:28:42.087Z,7.50
2018-03-04T21:31:09.580Z,7.50
2018-03-04T21:33:37.046Z,7.57
2018-03-04T21:36:04.524Z,7.20
2018-03-04T21:38:31.992Z,8.00
2018-03-04T21:40:59.468Z,6.50
2018-03-04T21:43:26.919Z,6.27
2018-03-04T21:45:54.396Z,5.87
2018-03-04T21:48:21.852Z,5.70
2018-03-04T21:50:49.328Z,5.50
2018-03-04T21:53:16.782Z,6.23
2018-03-04T21:55:44.297Z,5.53
2018-03-04T21:58:11.775Z,5.63
2018-03-04T22:00:39.252Z,5.17
2018-03-04T22:03:06.700Z,4.93
2018-03-04T22:05:34.176Z,4.70
2018-03-04T22:08:01.635Z,5.33
2018-03-04T22:10:29.111Z,6.23
2018-03-04T22:12:56.576Z,6.00
2018-03-04T22:15:24.063Z,12.17
2018-03-04T22:17:51.531Z,12.33
2018-03-04T22:20:19.004Z,6.47
2018-03-04T22:22:46.471Z,4.40
2018-03-04T22:25:13.968Z,4.30
2018-03-04T22:27:41.428Z,4.30
2018-03-04T22:30:08.911Z,3.90
2018-03-04T22:32:36.428Z,3.60
2018-03-04T22:35:03.932Z,4.03
2018-03-04T22:37:32.342Z,3.73
2018-03-04T22:40:05.627Z,3.73
2018-03-04T22:42:33.075Z,3.50
2018-03-04T22:45:02.529Z,3.80
2018-03-04T22:47:30.005Z,3.60
2018-03-04T22:49:57.504Z,3.40
2018-03-04T22:52:24.979Z,3.73
2018-03-04T22:54:52.435Z,3.50
2018-03-04T22:57:19.900Z,3.30
2018-03-04T22:59:47.347Z,3.10
2018-03-04T23:02:14.831Z,3.20
2018-03-04T23:04:42.291Z,3.20
2018-03-04T23:07:09.771Z,3.50
2018-03-04T23:09:37.254Z,2.93
2018-03-04T23:12:04.732Z,3.40
2018-03-04T23:14:32.187Z,2.90
2018-03-04T23:16:59.662Z,2.90
2018-03-04T23:19:27.113Z,3.10
2018-03-04T23:21:54.584Z,3.50
2018-03-04T23:24:22.035Z,3.10
2018-03-04T23:26:49.512Z,3.20
2018-03-04T23:29:16.972Z,2.77
2018-03-04T23:31:44.448Z,3.17
2018-03-04T23:34:11.907Z,2.83
2018-03-04T23:36:39.395Z,2.70
2018-03-04T23:39:06.849Z,3.00
2018-03-04T23:41:34.330Z,2.80
2018-03-04T23:44:01.790Z,2.90
2018-03-04T23:46:29.259Z,2.73
2018-03-04T23:48:56.719Z,2.30
2018-03-04T23:51:24.200Z,2.63
2018-03-04T23:53:51.651Z,2.63
2018-03-04T23:56:19.123Z,3.10
2018-03-04T23:58:46.603Z,3.20
